• Join FlightAware (Why Join?)
  • Login
  • US Flag 
Trick or treat! (Boo!!) 
04:38PM EDT


 

Airport Tracker/Info


-or-


 

Live Flight TrackerFlight Track Log ✈ SKW5561 ✈ 06-Oct-2013 ✈ KORD - CYEG

Flight Track Log - Related Links

Times and Time Zones

All times are in EDT time to prevent confusion due to time zone crossing. See the SKW5561 flight status page for this flight to view local times or setup timezone preferences in your user account.

Time Position Orientation Groundspeed Altitude Reporting Facility
EDT Latitude Longitude Course Direction KTS MPH feet Rate Location/Type
11:14AM 42.0167 -87.9667 346° North 171 197 2,700  Level Chicago TRACON
11:15AM 42.0667 -88.0000 334° Northwest 214 246 4,000 1,800 Climbing Chicago TRACON
11:17AM 42.2297 -88.0283 353° North 314 361 8,200 2,040 Climbing Chicago Center
11:18AM 42.3206 -88.0397 355° North 327 376 10,600 2,160 Climbing Chicago Center
11:19AM 42.3471 -88.4512 346° North  Level Estimated
11:19AM 42.4019 -88.1078 328° Northwest 336 387 12,700  Level Chicago Center
11:20AM 42.5014 -88.1164 356° North 356 410 14,800 1,980 Climbing Chicago Center
11:21AM 42.6056 -88.1244 357° North 373 429 16,800 1,980 Climbing Chicago Center
11:22AM 42.6808 -88.2056 322° Northwest 351 404 18,900 1,740 Climbing Chicago Center
11:23AM 42.7344 -88.3181 303° West 352 405 20,400 1,380 Climbing Chicago Center
11:24AM 42.7906 -88.4394 302° West 373 429 21,800 1,800 Climbing Chicago Center
11:25AM 42.8597 -88.5869 303° West 383 441 24,200 1,620 Climbing Chicago Center
11:26AM 42.9325 -88.7008 311° West 398 458 25,200 -1,680 Climbing Chicago Center
11:27AM 42.5025 -89.4097 231° Southwest 444 511 20,500 1,200 Descending Chicago Center
11:28AM 43.0847 -88.9447 30° Northeast 418 481 27,700 -1,320 Climbing Chicago Center
11:28AM 42.4811 -89.2539 201° Southwest 432 497 19,200 1,140 Descending Chicago Center
11:29AM 43.1650 -89.0731 11° North 436 502 28,900 -1,380 Climbing Chicago Center
11:29AM 42.4606 -89.1017 182° South 421 484 17,800 960 Descending Chicago Center
11:30AM 43.2456 -89.2028 355° North 443 510 29,900 7,080 Climbing Chicago Center
11:31AM 43.3275 -89.3350 310° West 451 519 30,900 960 Climbing Chicago Center
11:32AM 43.4100 -89.4703 310° West 457 526 31,900 960 Climbing Chicago Center
11:33AM 43.4914 -89.6047 310° West 457 526 33,000 780 Climbing Chicago Center
11:34AM 43.5911 -89.7692 310° West 464 534 33,500 480 Climbing Chicago Center
11:35AM 43.6778 -89.9117 310° West 480 552 34,000 540 Climbing Chicago Center
11:36AM 43.7664 -90.0564 310° West 491 565 34,700 720 Climbing Chicago Center
11:38AM 43.8511 -90.1994 309° West 486 559 35,600 960 Climbing Chicago Center
11:38AM 43.9036 -90.2847 311° West 486 559 36,300 1,080 Climbing Minneapolis Center
11:39AM 43.9867 -90.4244 310° West 475 547 37,400 780 Climbing Minneapolis Center
11:40AM 44.0700 -90.5694 309° West 460 529 38,000 240 Climbing Minneapolis Center
11:41AM 44.1511 -90.7044 310° West 460 529 38,000  Level Minneapolis Center
11:42AM 44.2308 -90.8397 309° West 458 527 38,000  Level Minneapolis Center
11:43AM 44.3083 -90.9733 309° West 450 518 38,000  Level Minneapolis Center
11:44AM 44.3908 -91.1172 309° West 448 516 38,000  Level Minneapolis Center
11:45AM 44.4692 -91.2503 310° West 446 513 38,000  Level Minneapolis Center
11:46AM 44.5617 -91.4108 309° West 444 511 38,000  Level Minneapolis Center
11:47AM 44.6392 -91.5464 309° West 446 513 38,000  Level Minneapolis Center
11:48AM 44.7164 -91.6842 308° West 449 517 38,000  Level Minneapolis Center
11:49AM 44.7961 -91.8233 309° West 455 524 38,000  Level Minneapolis Center
11:50AM 44.8747 -91.9639 308° West 458 527 38,000  Level Minneapolis Center
11:51AM 44.9497 -92.1050 307° West 455 524 38,000  Level Minneapolis Center
11:52AM 45.0317 -92.2461 309° West 462 532 38,000  Level Minneapolis Center
11:54AM 45.1239 -92.4144 308° West 456 525 38,000  Level Minneapolis Center
11:55AM 45.2000 -92.5531 308° West 451 519 38,000  Level Minneapolis Center
11:56AM 45.2756 -92.6906 308° West 446 513 38,000  Level Minneapolis Center
11:57AM 45.3506 -92.8281 308° West 445 512 38,000  Level Minneapolis Center
11:58AM 45.4256 -92.9642 308° West 441 507 38,000  Level Minneapolis Center
11:59AM 45.4997 -93.1036 307° West 443 510 38,000  Level Minneapolis Center
12:00PM 45.5906 -93.2708 308° West 446 513 38,000  Level Minneapolis Center
12:01PM 45.6653 -93.4089 308° West 443 510 38,000  Level Minneapolis Center
12:02PM 45.7394 -93.5503 307° West 445 512 38,000  Level Minneapolis Center
12:03PM 45.8144 -93.6922 307° West 448 516 38,000  Level Minneapolis Center
12:04PM 45.8878 -93.8319 307° West 443 510 38,000  Level Minneapolis Center
12:05PM 45.9594 -93.9694 307° West 434 499 38,000  Level Minneapolis Center
12:06PM 46.0456 -94.1339 307° West 430 495 38,000  Level Minneapolis Center
12:07PM 46.1164 -94.2697 307° West 427 491 38,000  Level Minneapolis Center
12:08PM 46.1856 -94.4064 306° West 424 488 38,000  Level Minneapolis Center
12:09PM 46.2497 -94.5311 307° West 420 483 38,000  Level Minneapolis Center
12:10PM 46.3192 -94.6658 307° West 418 481 38,000  Level Minneapolis Center
12:11PM 46.3992 -94.8239 306° West 409 471 38,000  Level Minneapolis Center
12:12PM 46.4658 -94.9567 306° West 407 468 38,000  Level Minneapolis Center
12:13PM 46.5325 -95.0886 306° West 406 467 38,000  Level Minneapolis Center
12:14PM 46.5975 -95.2192 306° West 401 461 38,000  Level Minneapolis Center
12:15PM 46.6614 -95.3483 306° West 396 456 38,000  Level Minneapolis Center
12:16PM 46.7264 -95.4753 307° West 393 452 38,000  Level Minneapolis Center
12:17PM 46.7889 -95.6039 305° West 391 450 38,000  Level Minneapolis Center
12:18PM 46.8622 -95.7547 305° West 384 442 38,000  Level Minneapolis Center
12:19PM 46.9236 -95.8786 306° West 379 436 38,000  Level Minneapolis Center
12:20PM 46.9839 -96.0022 306° West 377 434 38,000  Level Minneapolis Center
12:21PM 47.0431 -96.1236 306° West 371 427 38,000  Level Minneapolis Center
12:22PM 47.1006 -96.2444 305° West 365 420 38,000  Level Minneapolis Center
12:23PM 47.1694 -96.3875 305° West 360 414 38,000  Level Minneapolis Center
12:24PM 47.2269 -96.5069 305° West 359 413 38,000  Level Minneapolis Center
12:26PM 47.2850 -96.6267 306° West 362 417 38,000  Level Minneapolis Center
12:27PM 47.3433 -96.7478 305° West 364 419 38,000  Level Minneapolis Center
12:28PM 47.4006 -96.8686 305° West 362 417 38,000  Level Minneapolis Center
12:29PM 47.4569 -96.9911 304° West 362 417 38,000  Level Minneapolis Center
12:30PM 47.5267 -97.1358 306° West 362 417 38,000  Level Minneapolis Center
12:31PM 47.5831 -97.2575 305° West 362 417 38,000  Level Minneapolis Center
12:32PM 47.6389 -97.3806 304° West 363 418 38,000  Level Minneapolis Center
12:33PM 47.6947 -97.5025 304° West 362 417 38,000  Level Minneapolis Center
12:34PM 47.7503 -97.6250 304° West 363 418 38,000  Level Minneapolis Center
12:35PM 47.8178 -97.7717 304° West 362 417 38,000  Level Minneapolis Center
12:36PM 47.8731 -97.8942 304° West 362 417 38,000  Level Minneapolis Center
12:37PM 47.9294 -98.0178 304° West 363 418 38,000  Level Minneapolis Center
12:38PM 47.9858 -98.1428 304° West 365 420 38,000  Level Minneapolis Center
12:39PM 48.0403 -98.2664 303° West 362 417 38,000  Level Minneapolis Center
12:40PM 48.1075 -98.4147 304° West 361 415 38,000  Level Minneapolis Center
12:41PM 48.1622 -98.5361 304° West 357 411 38,000  Level Minneapolis Center
12:42PM 48.2164 -98.6594 303° West 356 410 38,000  Level Minneapolis Center
12:43PM 48.2697 -98.7825 303° West 354 407 38,000  Level Minneapolis Center
12:44PM 48.3228 -98.9042 303° West 352 405 38,000  Level Minneapolis Center
12:45PM 48.3750 -99.0236 303° West 348 400 38,000  Level Minneapolis Center
12:46PM 48.4356 -99.1675 302° West 343 395 38,000  Level Minneapolis Center
12:47PM 48.4861 -99.2867 303° West 340 391 38,000  Level Minneapolis Center
12:48PM 48.5378 -99.4053 303° West 340 391 38,000  Level Minneapolis Center
12:49PM 48.5892 -99.5244 303° West 339 390 38,000  Level Minneapolis Center
12:50PM 48.6408 -99.6461 303° West 343 395 38,000  Level Minneapolis Center
12:51PM 48.6931 -99.7681 303° West 345 397 38,000  Level Minneapolis Center
12:52PM 48.7564 -99.9167 303° West 349 402 38,000  Level Minneapolis Center
12:53PM 48.8067 -100.0397 302° West 347 399 38,000  Level Minneapolis Center
12:54PM 48.8578 -100.1597 303° West 342 394 38,000  Level Minneapolis Center
12:55PM 48.9072 -100.2792 302° West 337 388 38,000  Level Minneapolis Center
12:56PM 48.9564 -100.3947 303° West 330 380 38,000  Level Minneapolis Center
12:58PM 49.0039 -100.5125 302° West 327 376 38,000  Level Minneapolis Center
12:58PM 49.0333 -100.6333 290° West 330 380 38,000  Level Winnipeg Center
12:59PM 49.0833 -100.7500 303° West 330 380 38,000  Level Winnipeg Center
01:00PM 49.1333 -100.8833 300° West 340 391 38,000  Level Winnipeg Center
01:01PM 49.1833 -100.9833 307° West 340 391 38,000  Level Winnipeg Center
01:02PM 49.2333 -101.1167 300° West 350 403 38,000  Level Winnipeg Center
01:03PM 49.2833 -101.2500 300° West 350 403 38,000  Level Winnipeg Center
01:04PM 49.3500 -101.3833 308° West 350 403 38,000  Level Winnipeg Center
01:05PM 49.3833 -101.5167 291° West 360 414 38,000  Level Winnipeg Center
01:06PM 49.4500 -101.6500 308° West 360 414 38,000  Level Winnipeg Center
01:07PM 49.5000 -101.7833 300° West 360 414 38,000  Level Winnipeg Center
01:08PM 49.5333 -101.8833 297° West 360 414 38,000  Level Winnipeg Center
01:09PM 49.6000 -102.0333 304° West 350 403 38,000  Level Winnipeg Center
01:10PM 49.6500 -102.1667 300° West 350 403 38,000  Level Winnipeg Center
01:11PM 49.6833 -102.2667 297° West 340 391 38,000  Level Winnipeg Center
01:12PM 49.7500 -102.4000 308° West 330 380 38,000  Level Winnipeg Center
01:13PM 49.8000 -102.5167 304° West 330 380 38,000  Level Winnipeg Center
01:14PM 49.8333 -102.6500 291° West 320 368 38,000  Level Winnipeg Center
01:15PM 49.8833 -102.7667 304° West 320 368 38,000  Level Winnipeg Center
01:16PM 49.9333 -102.9000 300° West 320 368 38,000  Level Winnipeg Center
01:17PM 49.9667 -103.0000 297° West 320 368 38,000  Level Winnipeg Center
01:18PM 50.0167 -103.1167 304° West 320 368 38,000  Level Winnipeg Center
01:19PM 50.0667 -103.2500 300° West 320 368 38,000  Level Winnipeg Center
01:20PM 50.1000 -103.3667 294° West 330 380 38,000  Level Winnipeg Center
01:21PM 50.1500 -103.5000 300° West 330 380 38,000  Level Winnipeg Center
01:22PM 50.1833 -103.6167 294° West 330 380 38,000  Level Winnipeg Center
01:23PM 50.2500 -103.7500 308° West 340 391 38,000  Level Winnipeg Center
01:24PM 50.2833 -103.8833 291° West 340 391 38,000  Level Winnipeg Center
01:25PM 50.3333 -104.0000 304° West 340 391 38,000  Level Winnipeg Center
01:26PM 50.3833 -104.1333 300° West 340 391 38,000  Level Winnipeg Center
01:27PM 50.4167 -104.2500 294° West 340 391 38,000  Level Winnipeg Center
01:28PM 50.4833 -104.3833 308° West 340 391 38,000  Level Winnipeg Center
01:29PM 50.5167 -104.5333 289° West 340 391 38,000  Level Winnipeg Center
01:30PM 50.5667 -104.6333 308° West 340 391 38,000  Level Winnipeg Center
01:31PM 50.6000 -104.7833 289° West 340 391 38,000  Level Winnipeg Center
01:32PM 50.6500 -104.9167 301° West 330 380 38,000  Level Winnipeg Center
01:33PM 50.7000 -105.0333 304° West 330 380 38,000  Level Winnipeg Center
01:34PM 50.7500 -105.1833 298° West 330 380 38,000  Level Winnipeg Center
01:35PM 50.7833 -105.2833 298° West 330 380 38,000  Level Winnipeg Center
01:36PM 50.8167 -105.4333 289° West 330 380 38,000  Level Winnipeg Center
01:37PM 50.8667 -105.5500 304° West 330 380 38,000  Level Winnipeg Center
01:38PM 50.9333 -105.6667 312° West 330 380 38,000  Level Winnipeg Center
01:39PM 50.9667 -105.8000 292° West 330 380 38,000  Level Winnipeg Center
01:40PM 51.0000 -105.9167 294° West 330 380 38,000  Level Winnipeg Center
01:41PM 51.0500 -106.0667 298° West 330 380 38,000  Level Winnipeg Center
01:42PM 51.0833 -106.1667 298° West 330 380 38,000  Level Winnipeg Center
01:43PM 51.1500 -106.3167 305° West 330 380 38,000  Level Winnipeg Center
01:44PM 51.1833 -106.4333 295° West 330 380 38,000  Level Winnipeg Center
01:45PM 51.2167 -106.5500 295° West 330 380 38,000  Level Winnipeg Center
01:46PM 51.2667 -106.7000 298° West 330 380 38,000  Level Winnipeg Center
01:47PM 51.3000 -106.8167 295° West 330 380 38,000  Level Winnipeg Center
01:48PM 51.3667 -106.9667 305° West 330 380 38,000  Level Winnipeg Center
01:49PM 51.4000 -107.0833 295° West 330 380 38,000  Level Winnipeg Center
01:50PM 51.4333 -107.2167 292° West 330 380 38,000  Level Winnipeg Center
01:51PM 51.4833 -107.3333 305° West 330 380 38,000  Level Winnipeg Center
01:52PM 51.5333 -107.4833 298° West 330 380 38,000  Level Winnipeg Center
01:53PM 51.5667 -107.6000 295° West 330 380 38,000  Level Winnipeg Center
01:54PM 51.6167 -107.7500 298° West 330 380 38,000  Level Winnipeg Center
01:55PM 51.6500 -107.8667 295° West 330 380 38,000  Level Winnipeg Center
01:56PM 51.6833 -107.9667 298° West 330 380 38,000  Level Edmonton Center
01:57PM 51.7167 -108.0667 298° West 330 380 38,000  Level Edmonton Center
01:58PM 51.7667 -108.2167 298° West 330 380 38,000  Level Edmonton Center
01:59PM 51.8167 -108.3500 301° West 330 380 38,000  Level Edmonton Center
02:00PM 51.8333 -108.4833 281° West 330 380 38,000  Level Edmonton Center
02:01PM 51.8833 -108.6333 298° West 330 380 38,000  Level Edmonton Center
02:02PM 51.9333 -108.7500 305° West 330 380 38,000  Level Edmonton Center
02:03PM 51.9833 -108.8833 301° West 330 380 38,000  Level Edmonton Center
02:04PM 52.0000 -109.0333 280° West 330 380 38,000  Level Edmonton Center
02:05PM 52.0500 -109.1333 309° West 330 380 38,000  Level Edmonton Center
02:06PM 52.1000 -109.2833 299° West 330 380 38,000  Level Edmonton Center
02:07PM 52.1333 -109.4167 292° West 330 380 38,000  Level Edmonton Center
02:08PM 52.1667 -109.5667 290° West 340 391 38,000  Level Edmonton Center
02:09PM 52.2167 -109.7167 299° West 330 380 38,000  Level Edmonton Center
02:10PM 52.2667 -109.8500 302° West 330 380 38,000  Level Edmonton Center
02:11PM 52.3000 -109.9667 295° West 330 380 38,000  Level Edmonton Center
02:12PM 52.3333 -110.1167 290° West 330 380 38,000  Level Edmonton Center
02:13PM 52.3833 -110.2500 302° West 330 380 38,000  Level Edmonton Center
02:14PM 52.4000 -110.4000 280° West 330 380 38,000  Level Edmonton Center
02:15PM 52.4500 -110.5333 302° West 320 368 38,000  Level Edmonton Center
02:16PM 52.5000 -110.6667 302° West 330 380 38,000  Level Edmonton Center
02:17PM 52.5333 -110.8000 292° West 330 380 38,000  Level Edmonton Center
02:18PM 52.5667 -110.9500 290° West 330 380 38,000  Level Edmonton Center
02:19PM 52.6167 -111.0667 305° West 330 380 38,000  Level Edmonton Center
02:20PM 52.6500 -111.2167 290° West 330 380 38,000  Level Edmonton Center
02:21PM 52.6833 -111.3500 292° West 330 380 38,000 -600 Level Edmonton Center
02:22PM 52.7167 -111.5000 290° West 320 368 36,800 -2,160 Descending Edmonton Center
02:23PM 52.7667 -111.6167 305° West 330 380 33,700 -3,180 Descending Edmonton Center
02:24PM 52.8000 -111.7667 290° West 340 391 30,500 -3,120 Descending Edmonton Center
02:25PM 52.8500 -111.9167 299° West 340 391 27,500 -3,000 Descending Edmonton Center
02:26PM 52.8833 -112.0667 290° West 340 391 24,500 -3,180 Descending Edmonton Center
02:27PM 52.9167 -112.2000 293° West 340 391 21,200 -3,180 Descending Edmonton Center
02:28PM 52.9500 -112.3500 290° West 330 380 18,200 -2,880 Descending Edmonton Center
02:29PM 53.0000 -112.5000 299° West 330 380 15,500 -2,280 Descending Edmonton Center
02:30PM 53.0167 -112.6167 283° West 300 345 13,700 -1,800 Descending Edmonton Center
02:31PM 53.0333 -112.7333 283° West 270 311 12,000 -1,800 Descending Edmonton Center
02:32PM 53.0500 -112.8833 281° West 260 299 10,100 -1,800 Descending Edmonton Center
02:33PM 53.0667 -112.9667 288° West 260 299 8,400 -1,080 Descending Edmonton Center
02:34PM 53.1167 -113.0667 310° West 220 253 8,000 -240 Descending Edmonton Center
02:35PM 53.1667 -113.1333 321° Northwest 210 242 8,000  Level Edmonton Center
02:36PM 53.1833 -113.2167 288° West 210 242 8,000  Level Edmonton Center
02:37PM 53.2333 -113.2833 321° Northwest 210 242 8,000  Level Edmonton Center
02:38PM 53.2667 -113.3500 310° West 200 230 8,000  Level Edmonton Center
02:39PM 53.3167 -113.4167 321° Northwest 200 230 8,000 -480 Level Edmonton Center
02:40PM 53.3500 -113.4833 310° West 200 230 7,100 -1,320 Descending Edmonton Center
02:41PM 53.3833 -113.5667 304° West 210 242 5,400 -1,080 Descending Edmonton Center
02:42PM 53.4333 -113.6333 322° Northwest 230 265 5,000 -480 Descending Edmonton Center
02:43PM 53.4167 -113.7167 251° West 170 196 4,500 -420 Descending Edmonton Center
02:44PM 53.3833 -113.7667 222° Southwest 140 161 4,200 -240 Descending Edmonton Center
02:45PM 53.3500 -113.7333 149° Southeast 150 173 4,100 -360 Descending Edmonton Center
02:46PM 53.3167 -113.7000 149° Southeast 130 150 3,500 -660 Descending Edmonton Center
02:47PM 53.3000 -113.6333 113° Southeast 130 150 2,800 -600 Descending Edmonton Center
02:48PM 53.2833 -113.6000 130° Southeast 130 150 2,300 -540 Descending Edmonton Center